Yellowstone Natl Park, Wyoming
Current Conditions -  °F | °C
As of 7:35 AM on Friday 24 Oct 2014 (Local Time) from KWYS Reporting Station
Light Rain Light Rain  
Wind Chill: 39°   Ceiling: 4100
Heat Index: 39°   Visibility: 9mi
Dew Point: 37°   Wind: 3mph
Humidity: 93%   Direction: 340°NNW
Pressure: 30.15"   Gusts: NA
Location:  44.5°N, 110.58°W
Report Text: KWYS 241335Z AUTO 34003KT 9SM -RA FEW023 SCT030 BKN041 04/03 A3015 RMK AO2
Loading
Personal Weather Stations






























Interactive Weather Map
Tropical Storm Tracking
New forecast layout! Learn more

10-Day Weather Forecast

Advertisements
Track Severe Weather on mobile